createdAt,value
2023-03-26T00:02:08.748Z,17.99
2023-03-26T00:05:10.933Z,17.97
2023-03-26T00:08:13.019Z,17.91
2023-03-26T00:11:16.117Z,17.81
2023-03-26T00:14:18.046Z,17.87
2023-03-26T00:17:20.069Z,17.82
2023-03-26T00:20:22.717Z,17.69
2023-03-26T00:23:25.014Z,17.82
2023-03-26T00:26:27.832Z,17.78
2023-03-26T00:29:33.310Z,17.72
2023-03-26T00:32:35.522Z,17.71
2023-03-26T00:35:38.476Z,17.89
2023-03-26T00:38:40.856Z,17.90
2023-03-26T00:41:43.380Z,17.88
2023-03-26T00:44:45.722Z,17.88
2023-03-26T00:47:47.740Z,17.67
2023-03-26T00:50:50.476Z,17.77
2023-03-26T00:53:52.533Z,17.81
2023-03-26T00:56:56.071Z,17.75
2023-03-26T00:59:58.351Z,17.63
2023-03-26T01:03:01.625Z,17.59
2023-03-26T01:06:08.279Z,17.53
2023-03-26T01:09:21.049Z,17.47
2023-03-26T01:12:24.427Z,17.43
2023-03-26T01:15:30.138Z,17.41
2023-03-26T01:18:34.069Z,17.42
2023-03-26T01:21:38.854Z,17.38
2023-03-26T01:24:41.655Z,17.52
2023-03-26T01:27:47.138Z,17.61
2023-03-26T01:30:58.777Z,17.61
2023-03-26T01:34:12.464Z,17.59
2023-03-26T01:37:21.054Z,17.59
2023-03-26T01:40:27.088Z,17.58
2023-03-26T01:43:43.873Z,17.56
2023-03-26T01:46:46.925Z,17.41
2023-03-26T01:49:48.806Z,17.31
2023-03-26T01:52:50.783Z,17.31
2023-03-26T01:55:53.956Z,17.27
2023-03-26T01:59:07.543Z,17.26
2023-03-26T02:02:18.672Z,17.26
2023-03-26T02:05:37.757Z,17.21
2023-03-26T02:08:42.656Z,17.27
2023-03-26T02:11:45.426Z,17.39
2023-03-26T02:14:47.379Z,17.38
2023-03-26T02:17:49.804Z,17.37
2023-03-26T02:20:53.213Z,17.36
2023-03-26T02:24:03.495Z,17.31
2023-03-26T02:27:08.575Z,17.29
2023-03-26T02:30:13.018Z,17.26
2023-03-26T02:33:15.593Z,17.18
2023-03-26T02:36:19.771Z,17.11
2023-03-26T02:39:26.058Z,16.98
2023-03-26T02:42:32.623Z,16.86
2023-03-26T02:45:34.688Z,16.94
2023-03-26T02:48:42.733Z,16.85
2023-03-26T02:51:56.452Z,16.90
2023-03-26T02:55:02.398Z,16.84
2023-03-26T02:58:04.329Z,16.94
2023-03-26T03:01:11.205Z,17.02
2023-03-26T03:04:23.560Z,17.00
2023-03-26T03:07:25.910Z,17.04
2023-03-26T03:10:28.361Z,16.97
2023-03-26T03:13:38.771Z,16.97
2023-03-26T03:16:41.357Z,16.95
2023-03-26T03:19:47.178Z,16.86
2023-03-26T03:22:49.278Z,16.68
2023-03-26T03:25:52.829Z,16.57
2023-03-26T03:28:56.600Z,16.57
2023-03-26T03:32:00.266Z,16.61
2023-03-26T03:35:12.646Z,16.60
2023-03-26T03:38:17.922Z,16.59
2023-03-26T03:41:23.015Z,16.46
2023-03-26T03:44:25.022Z,16.47
2023-03-26T03:47:27.159Z,16.63
2023-03-26T03:50:29.059Z,16.65
2023-03-26T03:53:47.951Z,16.66
2023-03-26T03:56:53.316Z,16.61
2023-03-26T04:00:12.121Z,16.53
2023-03-26T04:03:33.157Z,16.53
2023-03-26T04:06:39.541Z,16.51
2023-03-26T04:09:43.402Z,16.34
2023-03-26T04:12:51.279Z,16.22
2023-03-26T04:15:57.145Z,16.23
2023-03-26T04:19:02.541Z,16.22
2023-03-26T04:22:04.589Z,16.26
2023-03-26T04:25:13.786Z,16.26
2023-03-26T04:28:28.895Z,16.25
2023-03-26T04:31:43.469Z,16.30
2023-03-26T04:34:49.414Z,16.48
2023-03-26T04:37:53.088Z,16.52
2023-03-26T04:41:04.017Z,16.59
2023-03-26T04:44:30.488Z,16.56
2023-03-26T04:47:46.793Z,16.49
2023-03-26T04:50:49.736Z,16.49
2023-03-26T04:53:58.268Z,16.41
2023-03-26T04:57:20.713Z,16.42
2023-03-26T05:00:34.777Z,16.31
2023-03-26T05:03:41.488Z,16.36
2023-03-26T05:06:46.950Z,16.36
2023-03-26T05:10:06.578Z,16.42
2023-03-26T05:13:28.854Z,16.49
2023-03-26T05:16:34.253Z,16.49
2023-03-26T05:19:42.331Z,16.60
2023-03-26T05:22:45.222Z,16.81
2023-03-26T05:25:55.586Z,16.94
2023-03-26T05:28:59.895Z,17.08
2023-03-26T05:32:07.995Z,17.14
2023-03-26T05:35:10.761Z,17.15
2023-03-26T05:38:13.000Z,17.51
2023-03-26T05:41:15.518Z,17.77
2023-03-26T05:44:21.807Z,17.82
2023-03-26T05:47:23.729Z,17.69
2023-03-26T05:50:25.908Z,17.72
2023-03-26T05:53:33.262Z,17.84
2023-03-26T05:56:54.111Z,17.72
2023-03-26T06:00:15.439Z,17.64
2023-03-26T06:03:20.051Z,17.57
2023-03-26T06:06:40.733Z,17.55
2023-03-26T06:09:42.783Z,17.65
2023-03-26T06:12:44.869Z,18.32
2023-03-26T06:15:47.501Z,18.90
2023-03-26T06:19:03.098Z,19.33
2023-03-26T06:22:13.175Z,19.78
2023-03-26T06:25:36.046Z,19.99
2023-03-26T06:28:45.443Z,20.01
2023-03-26T06:32:20.641Z,19.79
2023-03-26T06:35:33.912Z,18.63
2023-03-26T06:38:36.746Z,17.81
2023-03-26T06:41:41.419Z,17.37
2023-03-26T06:44:56.708Z,17.10
2023-03-26T06:48:10.364Z,16.98
2023-03-26T06:51:31.856Z,16.89
2023-03-26T06:55:10.471Z,17.34
2023-03-26T06:58:37.782Z,17.75
2023-03-26T07:02:01.522Z,18.26
2023-03-26T07:05:22.698Z,18.66
2023-03-26T07:08:43.584Z,18.99
2023-03-26T07:12:04.336Z,18.99
2023-03-26T07:15:35.941Z,19.67
2023-03-26T07:18:58.094Z,20.66
2023-03-26T07:22:05.824Z,20.72
2023-03-26T07:25:26.532Z,21.72
2023-03-26T07:29:04.731Z,21.62
2023-03-26T07:32:36.324Z,21.33
2023-03-26T07:36:19.625Z,22.81
2023-03-26T07:39:44.277Z,22.00
2023-03-26T08:09:28.875Z,21.77
2023-03-26T08:13:10.397Z,21.92
2023-03-26T08:16:23.910Z,21.98
2023-03-26T08:19:34.573Z,22.09
2023-03-26T08:22:42.965Z,22.05
2023-03-26T08:42:27.540Z,22.92
2023-03-26T08:46:27.413Z,22.61
2023-03-26T09:00:33.965Z,22.00
2023-03-26T09:04:32.064Z,21.78
2023-03-26T09:07:54.443Z,21.57
2023-03-26T09:11:03.386Z,21.53
2023-03-26T09:14:25.063Z,21.41
2023-03-26T09:17:58.052Z,21.46
2023-03-26T09:21:35.593Z,21.40
2023-03-26T09:24:43.371Z,21.27
2023-03-26T09:28:48.353Z,21.15
2023-03-26T09:32:20.816Z,21.25
2023-03-26T09:35:29.076Z,21.15
2023-03-26T09:38:45.773Z,21.05
2023-03-26T09:42:06.049Z,21.07
2023-03-26T09:45:29.878Z,21.05
2023-03-26T09:48:42.716Z,21.12
2023-03-26T09:52:06.116Z,21.20
2023-03-26T09:55:26.445Z,21.27
2023-03-26T09:58:50.041Z,21.33
2023-03-26T10:02:17.480Z,21.24
2023-03-26T10:05:26.820Z,21.25
2023-03-26T10:08:42.093Z,21.76
2023-03-26T10:12:08.723Z,21.96
2023-03-26T10:15:19.958Z,21.90
2023-03-26T10:18:53.372Z,21.78
2023-03-26T10:22:11.957Z,21.81
2023-03-26T10:25:17.518Z,21.62
2023-03-26T10:28:41.395Z,21.54
2023-03-26T10:32:31.628Z,21.49
2023-03-26T10:35:47.360Z,21.39
2023-03-26T10:39:36.648Z,21.33
2023-03-26T10:42:50.733Z,21.33
2023-03-26T10:46:00.600Z,21.52
2023-03-26T10:49:14.602Z,22.14
2023-03-26T10:52:22.756Z,22.46
2023-03-26T10:55:32.131Z,22.54
2023-03-26T10:58:48.931Z,22.65
2023-03-26T11:02:14.602Z,22.76
2023-03-26T11:05:59.726Z,23.00
2023-03-26T11:09:18.802Z,23.37
2023-03-26T11:12:49.468Z,23.60
2023-03-26T11:16:03.530Z,23.79
2023-03-26T11:19:35.557Z,23.84
2023-03-26T11:22:54.875Z,23.89
2023-03-26T11:26:17.676Z,23.72
2023-03-26T11:29:32.660Z,23.59
2023-03-26T11:32:44.531Z,23.52
2023-03-26T11:35:52.267Z,23.50
2023-03-26T11:39:01.334Z,23.20
2023-03-26T11:42:11.474Z,23.14
2023-03-26T11:45:29.979Z,23.09
2023-03-26T11:48:46.339Z,23.28
2023-03-26T11:51:50.532Z,23.62
2023-03-26T11:54:52.676Z,23.56
2023-03-26T11:58:00.298Z,23.51
2023-03-26T12:01:14.623Z,23.44
2023-03-26T12:04:45.866Z,23.52
2023-03-26T12:08:28.652Z,23.32
2023-03-26T12:11:37.633Z,23.04
2023-03-26T12:14:45.641Z,22.83
2023-03-26T12:17:57.128Z,22.68
2023-03-26T12:21:17.966Z,22.63
2023-03-26T12:24:29.568Z,22.36
2023-03-26T12:27:33.346Z,22.25
2023-03-26T12:30:38.036Z,21.83
2023-03-26T12:33:40.893Z,21.65
2023-03-26T12:36:56.458Z,21.50
2023-03-26T12:40:27.757Z,21.48
2023-03-26T12:44:49.992Z,21.33
2023-03-26T12:47:57.979Z,21.31
2023-03-26T12:50:58.285Z,21.21
2023-03-26T12:54:18.707Z,21.14
2023-03-26T12:57:30.874Z,21.11
2023-03-26T13:01:06.269Z,20.95
2023-03-26T13:04:20.320Z,20.72
2023-03-26T13:07:25.269Z,20.43
2023-03-26T13:10:39.748Z,20.22
2023-03-26T13:14:17.189Z,20.25
2023-03-26T13:17:49.857Z,19.97
2023-03-26T13:21:15.525Z,20.27
2023-03-26T13:25:05.708Z,20.91
2023-03-26T13:28:44.875Z,21.48
2023-03-26T13:32:10.075Z,21.73
2023-03-26T13:35:47.198Z,21.96
2023-03-26T13:39:27.947Z,22.03
2023-03-26T13:42:59.351Z,21.97
2023-03-26T13:46:17.198Z,22.21
2023-03-26T13:49:47.143Z,22.12
2023-03-26T13:52:49.210Z,21.99
2023-03-26T13:55:56.888Z,21.93
2023-03-26T13:59:36.576Z,21.85
2023-03-26T14:02:48.788Z,21.66
2023-03-26T14:05:56.380Z,21.69
2023-03-26T14:09:07.563Z,21.73
2023-03-26T14:12:33.907Z,21.61
2023-03-26T14:15:56.897Z,21.47
2023-03-26T14:19:22.508Z,21.43
2023-03-26T14:22:39.457Z,21.39
2023-03-26T14:26:07.205Z,21.37
2023-03-26T14:29:12.905Z,21.35
2023-03-26T14:32:56.166Z,21.26
2023-03-26T14:36:23.042Z,21.17
2023-03-26T14:40:15.431Z,21.03
2023-03-26T14:43:55.775Z,20.93
2023-03-26T14:47:18.867Z,20.91
2023-03-26T14:50:26.737Z,20.87
2023-03-26T14:53:36.198Z,20.81
2023-03-26T14:57:20.253Z,20.83
2023-03-26T15:00:58.300Z,20.77
2023-03-26T15:04:21.427Z,20.76
2023-03-26T15:07:41.589Z,20.95
2023-03-26T15:10:58.945Z,21.11
2023-03-26T15:14:22.445Z,21.11
2023-03-26T15:18:16.315Z,21.03
2023-03-26T15:21:24.618Z,20.98
2023-03-26T15:24:26.792Z,21.05
2023-03-26T15:27:58.675Z,21.85
2023-03-26T15:31:06.789Z,21.56
2023-03-26T15:34:14.507Z,21.13
2023-03-26T15:37:48.602Z,20.76
2023-03-26T15:41:06.044Z,20.59
2023-03-26T15:44:25.777Z,20.54
2023-03-26T15:47:43.104Z,20.44
2023-03-26T15:50:54.969Z,20.29
2023-03-26T15:54:16.824Z,20.26
2023-03-26T15:57:35.403Z,20.23
2023-03-26T16:01:04.144Z,20.14
2023-03-26T16:04:09.425Z,20.11
2023-03-26T16:07:41.759Z,20.01
2023-03-26T16:10:56.514Z,19.96
2023-03-26T16:14:34.457Z,19.93
2023-03-26T16:18:12.228Z,19.80
2023-03-26T16:21:35.261Z,19.69
2023-03-26T16:24:46.604Z,19.68
2023-03-26T16:28:06.748Z,19.62
2023-03-26T16:31:36.029Z,19.58
2023-03-26T16:34:42.742Z,19.55
2023-03-26T16:38:05.250Z,19.47
2023-03-26T16:41:19.630Z,19.44
2023-03-26T16:44:33.623Z,19.47
2023-03-26T16:48:01.853Z,19.50
2023-03-26T16:51:46.424Z,19.54
2023-03-26T16:54:53.205Z,19.70
2023-03-26T16:58:11.427Z,19.92
2023-03-26T17:01:37.302Z,19.96
2023-03-26T17:04:44.221Z,20.03
2023-03-26T17:08:01.940Z,20.14
2023-03-26T17:11:21.480Z,20.33
2023-03-26T17:15:14.572Z,20.17
2023-03-26T17:18:26.248Z,20.43
2023-03-26T17:22:03.314Z,20.32
2023-03-26T17:25:27.213Z,20.28
2023-03-26T17:28:41.990Z,20.04
2023-03-26T17:31:57.109Z,20.34
2023-03-26T17:35:09.344Z,20.41
2023-03-26T17:38:17.934Z,20.36
2023-03-26T17:41:51.267Z,20.44
2023-03-26T17:45:00.776Z,20.46
2023-03-26T17:48:13.827Z,20.42
2023-03-26T17:51:19.083Z,20.23
2023-03-26T17:54:42.696Z,20.05
2023-03-26T17:57:48.317Z,19.93
2023-03-26T18:01:29.121Z,19.88
2023-03-26T18:04:51.543Z,19.79
2023-03-26T18:08:42.626Z,19.65
2023-03-26T18:11:53.405Z,19.65
2023-03-26T18:15:22.599Z,19.74
2023-03-26T18:22:44.916Z,19.47
2023-03-26T18:25:57.444Z,19.56
2023-03-26T18:29:17.353Z,19.54
2023-03-26T18:32:26.824Z,19.45
2023-03-26T18:35:50.084Z,19.51
2023-03-26T18:38:58.503Z,19.58
2023-03-26T18:42:00.998Z,19.45
2023-03-26T18:45:09.571Z,19.44
2023-03-26T18:48:19.279Z,19.40
2023-03-26T18:51:31.969Z,19.28
2023-03-26T18:54:36.873Z,19.20
2023-03-26T18:57:39.856Z,19.13
2023-03-26T19:00:43.213Z,19.09
2023-03-26T19:03:45.949Z,19.07
2023-03-26T19:06:48.493Z,19.05
2023-03-26T19:09:56.499Z,18.96
2023-03-26T19:13:01.565Z,18.96
2023-03-26T19:16:22.355Z,18.97
2023-03-26T19:19:32.777Z,18.96
2023-03-26T19:22:35.562Z,18.95
2023-03-26T19:25:42.228Z,18.99
2023-03-26T19:28:51.149Z,18.90
2023-03-26T19:31:53.347Z,18.87
2023-03-26T19:35:00.112Z,18.86
2023-03-26T19:38:18.984Z,18.79
2023-03-26T19:41:25.802Z,18.78
2023-03-26T19:44:30.513Z,18.75
2023-03-26T19:47:50.058Z,18.69
2023-03-26T19:51:02.045Z,18.63
2023-03-26T19:54:14.103Z,18.62
2023-03-26T19:57:17.410Z,18.57
2023-03-26T20:00:20.461Z,18.55
2023-03-26T20:03:45.905Z,18.50
2023-03-26T20:06:51.855Z,18.46
2023-03-26T20:09:57.896Z,18.26
2023-03-26T20:13:00.708Z,18.33
2023-03-26T20:16:30.426Z,18.23
2023-03-26T20:19:32.445Z,18.24
2023-03-26T20:22:34.526Z,18.21
2023-03-26T20:25:41.819Z,18.16
2023-03-26T20:28:48.315Z,18.13
2023-03-26T20:32:01.759Z,18.03
2023-03-26T20:35:20.110Z,18.11
2023-03-26T20:38:44.572Z,18.07
2023-03-26T20:41:50.625Z,18.08
2023-03-26T20:44:52.689Z,18.12
2023-03-26T20:47:54.821Z,18.11
2023-03-26T20:50:57.160Z,18.12
2023-03-26T20:54:00.680Z,18.09
2023-03-26T20:57:03.078Z,18.15
2023-03-26T21:00:17.608Z,18.14
2023-03-26T21:03:21.381Z,18.16
2023-03-26T21:06:26.452Z,18.08
2023-03-26T21:09:34.189Z,18.05
2023-03-26T21:12:43.580Z,17.98
2023-03-26T21:15:45.972Z,17.90
2023-03-26T21:18:48.766Z,17.90
2023-03-26T21:22:03.628Z,17.84
2023-03-26T21:25:21.211Z,17.84
2023-03-26T21:28:35.858Z,17.77
2023-03-26T21:31:44.520Z,17.76
2023-03-26T21:34:57.528Z,17.64
2023-03-26T21:38:01.714Z,17.62
2023-03-26T21:41:04.666Z,17.61
2023-03-26T21:44:08.470Z,17.57
2023-03-26T21:47:11.446Z,17.58
2023-03-26T21:50:22.395Z,17.57
2023-03-26T21:53:24.815Z,17.69
2023-03-26T21:56:38.668Z,17.59
2023-03-26T21:59:55.888Z,17.54
2023-03-26T22:03:00.750Z,17.48
2023-03-26T22:06:10.749Z,17.47
2023-03-26T22:09:16.591Z,17.45
2023-03-26T22:12:20.749Z,17.42
2023-03-26T22:15:25.991Z,17.45
2023-03-26T22:18:30.607Z,17.42
2023-03-26T22:21:34.135Z,17.47
2023-03-26T22:24:38.582Z,17.42
2023-03-26T22:27:43.826Z,17.39
2023-03-26T22:30:46.847Z,17.34
2023-03-26T22:33:49.320Z,17.37
2023-03-26T22:36:52.619Z,17.31
2023-03-26T22:39:54.950Z,17.37
2023-03-26T22:42:57.284Z,17.38
2023-03-26T22:45:59.564Z,17.33
2023-03-26T22:49:01.846Z,17.35
2023-03-26T22:52:04.104Z,17.32
2023-03-26T22:55:06.990Z,17.29
2023-03-26T22:58:09.404Z,17.30
2023-03-26T23:01:21.461Z,17.27
2023-03-26T23:04:30.719Z,17.26
2023-03-26T23:07:34.664Z,17.26
2023-03-26T23:10:37.004Z,17.23
2023-03-26T23:13:40.576Z,17.20
2023-03-26T23:16:45.882Z,17.25
2023-03-26T23:19:48.150Z,17.23
2023-03-26T23:22:50.792Z,17.18
2023-03-26T23:25:53.331Z,17.18
2023-03-26T23:28:55.718Z,17.19
2023-03-26T23:31:58.109Z,17.17
2023-03-26T23:35:00.184Z,17.25
2023-03-26T23:38:02.450Z,17.21
2023-03-26T23:41:05.824Z,17.26
2023-03-26T23:44:08.008Z,17.25
2023-03-26T23:47:10.360Z,17.20
2023-03-26T23:50:13.137Z,17.21
2023-03-26T23:53:15.433Z,17.14
2023-03-26T23:56:17.981Z,17.17
2023-03-26T23:59:20.175Z,17.14
